Time;durP1;ratioP1;P1;durP2;ratioP2;P2;SDS_P1;SDS_P2;PMS_P1;PMS_P2;Temp;Humidity;BMP_temperature;BMP_pressure;BME280_temperature;BME280_humidity;BME280_pressure;Samples;Min_cycle;Max_cycle;Signal;HPM_P1;HPM_P2
2022/12/10 00:00:25;;;;;;;68.78;29.90;;;-1.60;99.90;;;;;;5028526;28;20095;-63
2022/12/10 00:02:51;;;;;;;72.65;32.03;;;-1.70;99.90;;;;;;5027053;28;20567;-64
2022/12/10 00:05:17;;;;;;;72.03;30.67;;;-1.70;99.90;;;;;;5011708;28;20040;-63
2022/12/10 00:07:42;;;;;;;75.32;31.80;;;-1.70;99.90;;;;;;5029546;28;20084;-63
2022/12/10 00:10:08;;;;;;;69.97;31.58;;;-1.70;99.90;;;;;;5036274;28;20044;-64
2022/12/10 00:12:34;;;;;;;68.30;31.45;;;-1.70;99.90;;;;;;5032826;28;20519;-64
2022/12/10 00:15:00;;;;;;;67.53;31.13;;;-1.70;99.90;;;;;;5032932;28;20144;-64
2022/12/10 00:17:26;;;;;;;63.58;29.63;;;-1.70;99.90;;;;;;5027582;28;20041;-64
2022/12/10 00:19:52;;;;;;;63.38;30.20;;;-1.70;99.90;;;;;;5010252;28;20059;-63
2022/12/10 00:22:17;;;;;;;69.30;31.65;;;-1.70;99.90;;;;;;5020834;28;20462;-63
2022/12/10 00:24:43;;;;;;;67.63;31.02;;;-1.70;99.90;;;;;;5031945;28;20369;-63
2022/12/10 00:27:09;;;;;;;66.93;31.33;;;-1.70;99.90;;;;;;5023617;28;20407;-63
2022/12/10 00:29:35;;;;;;;69.82;29.98;;;-1.70;99.90;;;;;;5031669;28;20329;-63
2022/12/10 00:32:00;;;;;;;68.00;30.73;;;-1.70;99.90;;;;;;5030493;28;20056;-63
2022/12/10 00:34:26;;;;;;;73.93;32.28;;;-1.80;99.90;;;;;;5030418;28;20452;-63
2022/12/10 00:36:52;;;;;;;73.20;32.40;;;-1.80;99.90;;;;;;5039406;28;20505;-64
2022/12/10 00:39:20;;;;;;;68.63;31.00;;;-1.80;99.90;;;;;;5017251;28;20529;-64
2022/12/10 00:41:46;;;;;;;63.55;30.48;;;-1.80;99.90;;;;;;5022636;28;20967;-64
2022/12/10 00:44:13;;;;;;;71.88;32.45;;;-1.80;99.90;;;;;;5034247;28;20492;-63
2022/12/10 00:46:39;;;;;;;74.10;30.85;;;-1.80;99.90;;;;;;5032011;28;20068;-63
2022/12/10 00:49:05;;;;;;;73.50;31.65;;;-1.80;99.90;;;;;;5033013;28;20959;-63
2022/12/10 00:51:31;;;;;;;67.55;30.25;;;-1.80;99.90;;;;;;5048057;28;20045;-63
2022/12/10 00:53:58;;;;;;;66.65;30.67;;;-1.80;99.90;;;;;;5032907;28;20053;-63
2022/12/10 00:56:27;;;;;;;64.18;32.00;;;-1.80;99.90;;;;;;5037830;28;20389;-63
2022/12/10 00:58:53;;;;;;;72.97;31.90;;;-1.80;99.90;;;;;;5031042;28;20040;-64
2022/12/10 01:01:21;;;;;;;75.47;32.05;;;-1.90;99.90;;;;;;5029648;28;20038;-65
2022/12/10 01:03:49;;;;;;;72.20;31.98;;;-1.90;99.90;;;;;;5032605;28;20056;-63
2022/12/10 01:06:27;;;;;;;75.28;32.72;;;-1.90;99.90;;;;;;5031643;28;20044;-63
2022/12/10 01:08:56;;;;;;;70.57;32.13;;;-1.90;99.90;;;;;;5034945;28;20065;-63
2022/12/10 01:11:27;;;;;;;71.22;32.45;;;-1.90;99.90;;;;;;5031799;28;20076;-63
2022/12/10 01:13:53;;;;;;;72.40;32.15;;;-1.90;99.90;;;;;;5028347;28;20048;-63
2022/12/10 01:16:21;;;;;;;68.63;32.42;;;-1.90;99.90;;;;;;5029302;28;20042;-63
2022/12/10 01:18:47;;;;;;;74.25;32.28;;;-1.90;99.90;;;;;;5001070;28;20591;-63
2022/12/10 01:21:16;;;;;;;74.72;34.00;;;-1.90;99.90;;;;;;5045059;28;20045;-63
2022/12/10 01:23:44;;;;;;;74.45;33.40;;;-2.00;99.90;;;;;;5019841;28;20082;-64
2022/12/10 01:26:13;;;;;;;85.55;35.92;;;-2.00;99.90;;;;;;5030489;28;20052;-64
2022/12/10 01:28:40;;;;;;;78.35;34.78;;;-2.00;99.90;;;;;;5026784;28;20045;-63
2022/12/10 01:31:11;;;;;;;76.72;33.90;;;-2.00;99.90;;;;;;5028365;28;20076;-64
2022/12/10 01:33:39;;;;;;;74.82;35.22;;;-2.00;99.90;;;;;;5030456;28;20129;-63
2022/12/10 01:36:16;;;;;;;79.03;34.03;;;-2.00;99.90;;;;;;5026600;28;20056;-64
2022/12/10 01:38:43;;;;;;;75.50;33.90;;;-2.00;99.90;;;;;;5028203;28;20388;-64
2022/12/10 01:41:15;;;;;;;85.38;36.58;;;-2.00;99.90;;;;;;5030736;28;20045;-64
2022/12/10 01:44:07;;;;;;;90.93;37.35;;;-2.00;99.90;;;;;;5023979;28;20494;-63
2022/12/10 01:46:35;;;;;;;88.32;36.65;;;-2.00;99.90;;;;;;4988871;28;20076;-63
2022/12/10 01:49:04;;;;;;;78.35;35.97;;;-1.90;99.90;;;;;;5027251;28;20048;-63
2022/12/10 01:51:33;;;;;;;86.70;36.22;;;-1.90;99.90;;;;;;5028138;28;20110;-63
2022/12/10 01:54:00;;;;;;;86.35;36.38;;;-1.90;99.90;;;;;;5026537;28;20049;-63
2022/12/10 01:56:26;;;;;;;84.85;37.40;;;-1.90;99.90;;;;;;5027681;28;20499;-63
2022/12/10 01:58:54;;;;;;;80.78;35.78;;;-1.90;99.90;;;;;;5027100;28;20098;-63
2022/12/10 02:01:43;;;;;;;86.68;36.08;;;-2.00;99.90;;;;;;5027580;28;20147;-63
2022/12/10 02:04:15;;;;;;;83.03;35.92;;;-1.90;99.90;;;;;;5040137;28;20545;-63
2022/12/10 02:06:43;;;;;;;85.72;36.83;;;-1.90;99.90;;;;;;5030137;28;20114;-63
2022/12/10 02:09:24;;;;;;;88.47;37.55;;;-2.00;99.90;;;;;;5034958;28;20061;-64
2022/12/10 02:12:01;;;;;;;82.15;35.75;;;-2.00;99.90;;;;;;5019828;28;20059;-64
2022/12/10 02:14:37;;;;;;;85.43;36.88;;;-2.00;99.90;;;;;;5028242;28;20045;-63
2022/12/10 02:17:17;;;;;;;83.13;36.85;;;-2.00;99.90;;;;;;5020418;28;20395;-63
2022/12/10 02:19:57;;;;;;;91.28;36.38;;;-2.00;99.90;;;;;;5027043;28;20049;-63
2022/12/10 02:22:25;;;;;;;96.72;37.70;;;-2.00;99.90;;;;;;5035801;28;20037;-64
2022/12/10 02:24:53;;;;;;;93.80;37.30;;;-2.00;99.90;;;;;;5031477;28;20360;-63
2022/12/10 02:28:03;;;;;;;87.07;36.20;;;-2.00;99.90;;;;;;5026686;28;20520;-64
2022/12/10 02:30:32;;;;;;;87.07;38.20;;;-1.90;99.90;;;;;;5018557;28;20045;-63
2022/12/10 02:32:59;;;;;;;89.15;36.88;;;-1.90;99.90;;;;;;5034096;28;20083;-63
2022/12/10 02:35:30;;;;;;;87.43;37.10;;;-1.90;99.90;;;;;;5030399;28;20585;-64
2022/12/10 02:38:12;;;;;;;82.72;36.20;;;-1.90;99.90;;;;;;5043230;28;20049;-63
2022/12/10 02:40:44;;;;;;;88.85;36.03;;;-1.90;99.90;;;;;;5029524;28;20135;-63
2022/12/10 02:43:13;;;;;;;86.57;36.23;;;-2.00;99.90;;;;;;5028069;28;20049;-63
2022/12/10 02:45:40;;;;;;;92.80;36.95;;;-2.00;99.90;;;;;;5025773;28;20040;-63
2022/12/10 02:48:06;;;;;;;89.20;37.17;;;-2.00;99.90;;;;;;5026634;28;20044;-63
2022/12/10 02:50:32;;;;;;;99.63;39.70;;;-2.00;99.90;;;;;;5022779;28;20072;-63
2022/12/10 02:52:58;;;;;;;91.85;37.47;;;-2.00;99.90;;;;;;5026194;28;20167;-63
2022/12/10 02:55:24;;;;;;;84.00;36.40;;;-2.00;99.90;;;;;;5022853;28;20053;-63
2022/12/10 02:58:26;;;;;;;90.22;37.42;;;-2.00;99.90;;;;;;5044788;28;20133;-63
2022/12/10 03:01:12;;;;;;;94.70;37.63;;;-2.00;99.90;;;;;;5014283;28;20118;-63
2022/12/10 03:03:52;;;;;;;83.90;36.95;;;-2.00;99.90;;;;;;5027696;28;20041;-63
2022/12/10 03:06:27;;;;;;;93.70;38.15;;;-2.00;99.90;;;;;;5008291;28;20048;-63
2022/12/10 03:09:03;;;;;;;96.57;38.03;;;-2.00;99.90;;;;;;5010877;28;20518;-63
2022/12/10 03:11:29;;;;;;;90.90;38.38;;;-2.00;99.90;;;;;;5027858;28;20048;-63
2022/12/10 03:14:02;;;;;;;97.68;38.20;;;-2.00;99.90;;;;;;5027473;28;20049;-63
2022/12/10 03:16:39;;;;;;;93.88;38.13;;;-2.00;99.90;;;;;;5027981;28;20041;-63
2022/12/10 03:19:10;;;;;;;91.03;37.72;;;-2.00;99.90;;;;;;5027726;28;20055;-63
2022/12/10 03:21:39;;;;;;;86.82;35.92;;;-2.00;99.90;;;;;;5025418;28;20049;-63
2022/12/10 03:24:06;;;;;;;89.38;37.40;;;-2.00;99.90;;;;;;5010010;28;20044;-63
2022/12/10 03:26:33;;;;;;;83.82;37.00;;;-2.00;99.90;;;;;;5027295;28;20064;-63
2022/12/10 03:29:07;;;;;;;83.47;36.70;;;-2.10;99.90;;;;;;5018944;28;20124;-63
2022/12/10 03:31:34;;;;;;;80.15;35.13;;;-2.10;99.90;;;;;;5026053;28;20044;-63
2022/12/10 03:34:02;;;;;;;88.88;36.97;;;-2.10;99.90;;;;;;5024272;28;20406;-63
2022/12/10 03:36:30;;;;;;;85.70;35.05;;;-2.20;99.90;;;;;;5025743;28;20499;-63
2022/12/10 03:38:57;;;;;;;89.90;38.10;;;-2.10;99.90;;;;;;4995117;28;20503;-63
2022/12/10 03:41:23;;;;;;;83.57;35.75;;;-2.20;99.90;;;;;;5030734;28;20072;-63
2022/12/10 03:43:59;;;;;;;90.22;37.50;;;-2.20;99.90;;;;;;5028242;28;20128;-63
2022/12/10 03:46:28;;;;;;;81.88;36.00;;;-2.20;99.90;;;;;;5014321;28;20053;-63
2022/12/10 03:48:55;;;;;;;81.32;36.85;;;-2.20;99.90;;;;;;5036459;28;20037;-63
2022/12/10 03:51:21;;;;;;;88.43;39.63;;;-2.20;99.90;;;;;;5030168;28;20131;-63
2022/12/10 03:53:50;;;;;;;97.20;40.28;;;-2.20;99.90;;;;;;5029629;28;20041;-63
2022/12/10 03:56:17;;;;;;;89.90;37.05;;;-2.20;99.90;;;;;;5027022;28;20065;-63
2022/12/10 03:58:43;;;;;;;93.25;37.60;;;-2.20;99.90;;;;;;5028977;28;20077;-63
2022/12/10 04:01:09;;;;;;;87.38;38.47;;;-2.20;99.90;;;;;;5028449;28;20144;-63
2022/12/10 04:03:40;;;;;;;87.65;39.75;;;-2.20;99.90;;;;;;5030846;28;20545;-63
2022/12/10 04:06:10;;;;;;;98.53;40.22;;;-2.20;99.90;;;;;;5016650;28;20045;-63
2022/12/10 04:08:36;;;;;;;93.38;40.85;;;-2.20;99.90;;;;;;5027965;28;21564;-63
2022/12/10 04:11:08;;;;;;;104.03;40.63;;;-2.10;99.90;;;;;;5019740;28;20053;-63
2022/12/10 04:16:27;;;;;;;90.22;38.83;;;-2.10;99.90;;;;;;5028038;28;20056;-63
2022/12/10 04:19:19;;;;;;;97.75;40.15;;;-2.10;99.90;;;;;;5030300;28;20092;-63
2022/12/10 04:27:36;;;;;;;88.20;37.55;;;-2.00;99.90;;;;;;5033402;28;20056;-63
2022/12/10 04:30:03;;;;;;;109.53;41.72;;;-2.00;99.90;;;;;;5012655;28;20053;-63
2022/12/10 04:32:30;;;;;;;97.40;38.92;;;-2.00;99.90;;;;;;5030530;28;20056;-63
2022/12/10 04:34:56;;;;;;;97.13;40.83;;;-2.00;99.90;;;;;;5031342;28;20579;-63
2022/12/10 04:37:23;;;;;;;100.88;40.03;;;-1.90;99.90;;;;;;5031385;28;20049;-63
2022/12/10 04:39:52;;;;;;;100.68;41.80;;;-1.90;99.90;;;;;;5032104;28;20087;-63
2022/12/10 04:42:19;;;;;;;107.57;42.35;;;-1.90;99.90;;;;;;5015926;28;20127;-63
2022/12/10 04:44:45;;;;;;;102.97;42.28;;;-1.90;99.90;;;;;;5032739;28;20409;-63
2022/12/10 04:47:12;;;;;;;97.57;40.33;;;-1.90;99.90;;;;;;5020301;28;20075;-63
2022/12/10 04:49:38;;;;;;;102.47;42.13;;;-1.80;99.90;;;;;;5014927;28;20048;-63
2022/12/10 04:52:05;;;;;;;111.03;43.10;;;-1.80;99.90;;;;;;5035933;28;20049;-63
2022/12/10 04:54:31;;;;;;;117.90;43.65;;;-1.80;99.90;;;;;;5019989;28;21072;-63
2022/12/10 04:56:57;;;;;;;123.45;45.58;;;-1.80;99.90;;;;;;5031703;28;20049;-63
2022/12/10 04:59:23;;;;;;;131.90;47.10;;;-1.80;99.90;;;;;;5028398;28;20045;-63
2022/12/10 05:01:49;;;;;;;129.25;45.67;;;-1.80;99.90;;;;;;5028516;28;20118;-63
2022/12/10 05:04:17;;;;;;;133.68;46.30;;;-1.70;99.90;;;;;;5026262;28;20048;-63
2022/12/10 05:06:44;;;;;;;126.95;44.22;;;-1.70;99.90;;;;;;5035366;28;20771;-63
2022/12/10 05:09:11;;;;;;;128.48;45.03;;;-1.70;99.90;;;;;;5029850;28;20088;-63
2022/12/10 05:11:38;;;;;;;114.75;43.40;;;-1.70;99.90;;;;;;5031746;28;20407;-63
2022/12/10 05:14:04;;;;;;;129.73;45.03;;;-1.70;99.90;;;;;;5029074;28;20084;-63
2022/12/10 05:16:32;;;;;;;123.78;45.58;;;-1.70;99.90;;;;;;5013355;28;20041;-63
2022/12/10 05:18:59;;;;;;;129.38;44.28;;;-1.70;99.90;;;;;;5017054;28;20045;-63
2022/12/10 05:24:14;;;;;;;121.57;44.80;;;-1.70;99.90;;;;;;4989434;28;20403;-63
2022/12/10 05:26:39;;;;;;;139.60;44.47;;;-1.70;99.90;;;;;;5037702;28;20076;-63
2022/12/10 05:29:05;;;;;;;126.72;44.88;;;-1.70;99.90;;;;;;5018531;28;20116;-63
2022/12/10 05:31:31;;;;;;;142.00;46.80;;;-1.70;99.90;;;;;;5034490;28;20080;-63
2022/12/10 05:33:58;;;;;;;136.95;45.15;;;-1.70;99.90;;;;;;5037957;28;20122;-63
2022/12/10 05:36:26;;;;;;;152.93;45.33;;;-1.70;99.90;;;;;;5029534;28;20042;-63
2022/12/10 05:38:54;;;;;;;131.70;45.35;;;-1.60;99.90;;;;;;5039795;28;20041;-63
2022/12/10 05:41:22;;;;;;;147.25;46.85;;;-1.60;99.90;;;;;;5034614;28;20044;-63
2022/12/10 05:43:48;;;;;;;155.50;45.92;;;-1.60;99.90;;;;;;5029248;28;20075;-63
2022/12/10 05:46:20;;;;;;;146.73;46.42;;;-1.60;99.90;;;;;;5030594;28;20055;-63
2022/12/10 05:48:47;;;;;;;162.25;46.83;;;-1.60;99.90;;;;;;5029655;28;20176;-63
2022/12/10 05:51:15;;;;;;;144.00;45.78;;;-1.60;99.90;;;;;;5026552;28;20473;-63
2022/12/10 05:53:42;;;;;;;136.60;44.58;;;-1.60;99.90;;;;;;5027249;28;20166;-63
2022/12/10 05:56:20;;;;;;;139.68;45.75;;;-1.60;99.90;;;;;;5034837;28;20041;-63
2022/12/10 05:58:48;;;;;;;204.70;48.80;;;-1.60;99.90;;;;;;5028622;28;20817;-63
2022/12/10 06:01:22;;;;;;;251.65;47.47;;;-1.60;99.90;;;;;;5027699;28;20055;-63
2022/12/10 06:03:52;;;;;;;196.10;46.72;;;-1.60;99.90;;;;;;5026736;28;20056;-63
2022/12/10 06:06:23;;;;;;;211.65;46.65;;;-1.60;99.90;;;;;;5031003;28;20590;-63
2022/12/10 06:08:49;;;;;;;197.95;47.45;;;-1.60;99.90;;;;;;5030266;28;20050;-63
2022/12/10 06:11:16;;;;;;;156.32;45.83;;;-1.60;99.90;;;;;;5032544;28;20040;-63
2022/12/10 06:13:41;;;;;;;175.55;48.42;;;-1.60;99.90;;;;;;5027011;28;20048;-63
2022/12/10 06:16:09;;;;;;;155.15;46.03;;;-1.60;99.90;;;;;;5030482;28;20098;-63
2022/12/10 06:18:36;;;;;;;240.40;49.40;;;-1.60;99.90;;;;;;5030916;28;20048;-63
2022/12/10 06:21:06;;;;;;;231.82;47.40;;;-1.60;99.90;;;;;;5037392;28;20072;-63
2022/12/10 06:23:37;;;;;;;201.27;48.58;;;-1.60;99.90;;;;;;5031399;28;20045;-63
2022/12/10 06:26:09;;;;;;;315.05;47.83;;;-1.60;99.90;;;;;;5030233;28;20541;-63
2022/12/10 06:28:36;;;;;;;254.63;49.65;;;-1.60;99.90;;;;;;5035042;28;20063;-63
2022/12/10 06:31:02;;;;;;;192.00;46.00;;;-1.60;99.90;;;;;;5010457;28;20056;-63
2022/12/10 06:33:28;;;;;;;152.57;45.55;;;-1.60;99.90;;;;;;5027731;28;20088;-63
2022/12/10 06:35:54;;;;;;;344.85;50.35;;;-1.60;99.90;;;;;;5010962;28;20127;-63
2022/12/10 06:38:20;;;;;;;412.67;49.10;;;-1.60;99.90;;;;;;5026589;28;20048;-63
2022/12/10 06:40:46;;;;;;;259.38;45.72;;;-1.60;99.90;;;;;;5022567;28;20211;-63
2022/12/10 06:43:11;;;;;;;360.38;50.22;;;-1.60;99.90;;;;;;5024449;28;20073;-63
2022/12/10 06:45:41;;;;;;;220.45;46.42;;;-1.60;99.90;;;;;;5024905;28;20103;-63
2022/12/10 06:48:07;;;;;;;286.52;46.30;;;-1.60;99.90;;;;;;5030011;28;20702;-63
2022/12/10 06:50:34;;;;;;;223.82;45.30;;;-1.60;99.90;;;;;;5026366;28;20080;-63
2022/12/10 06:53:00;;;;;;;281.75;40.72;;;-1.60;99.90;;;;;;5023793;28;20523;-63
2022/12/10 06:55:26;;;;;;;347.60;44.47;;;-1.60;99.90;;;;;;5027079;28;20045;-63
2022/12/10 06:57:52;;;;;;;251.65;44.83;;;-1.60;99.90;;;;;;5021834;28;20049;-63
2022/12/10 07:00:19;;;;;;;230.63;43.50;;;-1.60;99.90;;;;;;5023537;28;20041;-63
2022/12/10 07:02:45;;;;;;;371.20;46.05;;;-1.60;99.90;;;;;;5025146;28;20084;-63
2022/12/10 07:05:11;;;;;;;217.20;42.67;;;-1.70;99.90;;;;;;5027245;28;20052;-63
2022/12/10 07:07:37;;;;;;;252.25;45.30;;;-1.70;99.90;;;;;;5022364;28;20057;-63
2022/12/10 07:10:04;;;;;;;239.43;41.85;;;-1.60;99.90;;;;;;5040136;28;20122;-63
2022/12/10 07:12:30;;;;;;;290.80;42.95;;;-1.60;99.90;;;;;;5017033;28;20048;-63
2022/12/10 07:14:55;;;;;;;392.85;46.13;;;-1.70;99.90;;;;;;5009151;28;20055;-63
2022/12/10 07:17:21;;;;;;;369.10;44.22;;;-1.70;99.90;;;;;;5029069;28;20089;-64
2022/12/10 07:19:47;;;;;;;415.58;50.15;;;-1.70;99.90;;;;;;5027824;28;20389;-64
2022/12/10 07:22:13;;;;;;;285.05;43.53;;;-1.70;99.90;;;;;;5026777;28;20037;-64
2022/12/10 07:24:38;;;;;;;259.63;44.88;;;-1.70;99.90;;;;;;5028609;28;20492;-62
2022/12/10 07:27:06;;;;;;;188.05;44.67;;;-1.70;99.90;;;;;;5034836;28;20523;-62
2022/12/10 07:29:32;;;;;;;208.90;44.60;;;-1.70;99.90;;;;;;5029510;28;20675;-63
2022/12/10 07:31:57;;;;;;;288.77;44.80;;;-1.70;99.90;;;;;;5012374;28;20170;-63
2022/12/10 07:34:23;;;;;;;297.55;45.78;;;-1.60;99.90;;;;;;5027949;28;20044;-63
2022/12/10 07:36:49;;;;;;;231.57;43.15;;;-1.70;99.90;;;;;;5028690;28;20087;-62
2022/12/10 07:39:17;;;;;;;254.45;43.75;;;-1.70;99.90;;;;;;5028553;28;20849;-61
2022/12/10 07:41:49;;;;;;;281.08;43.17;;;-1.70;99.90;;;;;;5027823;28;20172;-62
2022/12/10 07:44:16;;;;;;;302.67;46.63;;;-1.70;99.90;;;;;;5009201;28;20154;-61
2022/12/10 07:46:42;;;;;;;190.05;41.28;;;-1.70;99.90;;;;;;5005878;28;20035;-62
2022/12/10 07:49:08;;;;;;;255.73;43.10;;;-1.70;99.90;;;;;;5005461;28;20044;-62
2022/12/10 07:51:33;;;;;;;172.57;44.78;;;-1.70;99.90;;;;;;5023376;28;20466;-62
2022/12/10 07:53:59;;;;;;;169.98;44.17;;;-1.70;99.90;;;;;;5011267;28;20072;-62
2022/12/10 07:56:25;;;;;;;257.98;45.10;;;-1.70;99.90;;;;;;5028591;28;20095;-62
2022/12/10 07:58:52;;;;;;;195.65;40.05;;;-1.70;99.90;;;;;;5030448;28;20450;-62
2022/12/10 08:01:25;;;;;;;151.65;40.35;;;-1.80;99.90;;;;;;5036189;28;20033;-61
2022/12/10 08:03:52;;;;;;;177.52;39.63;;;-1.80;99.90;;;;;;5025327;28;20148;-62
2022/12/10 08:06:20;;;;;;;244.02;38.35;;;-1.80;99.90;;;;;;5011054;28;20934;-61
2022/12/10 08:08:47;;;;;;;167.75;38.25;;;-1.80;99.90;;;;;;5021585;28;20410;-61
2022/12/10 08:11:14;;;;;;;190.65;39.10;;;-1.80;99.90;;;;;;5025724;28;20041;-62
2022/12/10 08:13:40;;;;;;;170.07;37.05;;;-1.80;99.90;;;;;;5005668;28;20095;-61
2022/12/10 08:16:28;;;;;;;224.38;37.58;;;-1.80;99.90;;;;;;5036670;28;20041;-62
2022/12/10 08:18:58;;;;;;;209.93;40.50;;;-1.90;99.90;;;;;;5020193;28;20107;-62
2022/12/10 08:21:28;;;;;;;185.63;37.13;;;-1.80;99.90;;;;;;5023654;28;20056;-62
2022/12/10 08:23:55;;;;;;;188.27;39.53;;;-1.90;99.90;;;;;;5022589;28;20053;-62
2022/12/10 08:26:24;;;;;;;216.18;36.50;;;-1.90;99.90;;;;;;5022407;28;21256;-61
2022/12/10 08:28:51;;;;;;;201.35;39.30;;;-1.90;99.90;;;;;;5021306;28;20041;-62
2022/12/10 08:31:18;;;;;;;222.32;41.55;;;-1.90;99.90;;;;;;5025986;28;20052;-62
2022/12/10 08:33:44;;;;;;;174.90;39.88;;;-1.90;99.90;;;;;;5025433;28;20073;-61
2022/12/10 08:36:13;;;;;;;209.60;36.78;;;-2.00;99.90;;;;;;5013790;28;20051;-62
2022/12/10 08:38:40;;;;;;;217.18;37.60;;;-1.90;99.90;;;;;;5007052;28;20488;-62
2022/12/10 08:41:08;;;;;;;127.88;35.38;;;-2.00;99.90;;;;;;5028788;28;20095;-62
2022/12/10 08:43:34;;;;;;;169.90;34.42;;;-1.90;99.90;;;;;;5024220;28;20052;-62
2022/12/10 08:46:01;;;;;;;119.35;32.67;;;-2.00;99.90;;;;;;5024533;28;20451;-61
2022/12/10 08:48:27;;;;;;;171.77;33.50;;;-2.00;99.90;;;;;;5029915;28;20063;-63
2022/12/10 08:50:53;;;;;;;154.73;33.15;;;-2.00;99.90;;;;;;5015416;28;20045;-63
2022/12/10 08:53:19;;;;;;;147.32;33.30;;;-2.00;99.90;;;;;;5038996;28;20037;-63
2022/12/10 08:55:44;;;;;;;135.27;34.40;;;-2.00;99.90;;;;;;5031438;28;20079;-63
2022/12/10 08:58:10;;;;;;;131.93;34.88;;;-2.00;99.90;;;;;;5016197;28;20124;-63
2022/12/10 09:00:37;;;;;;;157.63;33.95;;;-2.00;99.90;;;;;;5033547;28;20480;-64
2022/12/10 09:03:03;;;;;;;151.43;33.20;;;-2.00;99.90;;;;;;5036035;28;20406;-63
2022/12/10 09:05:29;;;;;;;152.38;32.67;;;-2.00;99.90;;;;;;5021766;28;20044;-64
2022/12/10 09:07:55;;;;;;;185.43;32.58;;;-2.00;99.90;;;;;;5021334;28;20060;-63
2022/12/10 09:10:21;;;;;;;148.88;32.50;;;-2.10;99.90;;;;;;5007249;28;20096;-63
2022/12/10 09:12:47;;;;;;;136.48;33.20;;;-2.10;99.90;;;;;;5009307;28;20050;-63
2022/12/10 09:15:13;;;;;;;129.65;33.30;;;-2.10;99.90;;;;;;5025350;28;20060;-63
2022/12/10 09:17:39;;;;;;;144.68;33.00;;;-2.10;99.90;;;;;;5024371;28;20132;-63
2022/12/10 09:20:05;;;;;;;167.35;35.45;;;-2.00;99.90;;;;;;5024545;28;20042;-63
2022/12/10 09:22:32;;;;;;;120.25;33.90;;;-2.00;99.90;;;;;;4988737;28;20471;-63
2022/12/10 09:24:57;;;;;;;191.07;35.30;;;-2.00;99.90;;;;;;5027234;28;20048;-63
2022/12/10 09:27:23;;;;;;;136.32;33.65;;;-2.00;99.90;;;;;;5022362;28;20061;-63
2022/12/10 09:29:49;;;;;;;183.00;34.40;;;-2.00;99.90;;;;;;5024770;28;20048;-63
2022/12/10 09:32:15;;;;;;;181.73;34.42;;;-1.90;99.90;;;;;;5022766;28;20099;-63
2022/12/10 09:34:41;;;;;;;152.75;34.00;;;-1.90;99.90;;;;;;5027595;28;20053;-64
2022/12/10 09:37:06;;;;;;;164.02;34.35;;;-1.80;99.90;;;;;;5023487;28;20049;-63
2022/12/10 09:39:32;;;;;;;123.43;34.75;;;-1.80;99.90;;;;;;5027909;28;20163;-63
2022/12/10 09:42:19;;;;;;;183.45;35.95;;;-1.80;99.90;;;;;;5027644;28;20079;-63
2022/12/10 09:44:49;;;;;;;148.57;33.63;;;-1.80;99.90;;;;;;5025573;28;20043;-63
2022/12/10 09:47:16;;;;;;;158.00;33.53;;;-1.80;99.90;;;;;;5028526;28;20148;-64
2022/12/10 09:50:03;;;;;;;121.68;32.40;;;-1.70;99.90;;;;;;5032101;28;20106;-63
2022/12/10 09:52:36;;;;;;;137.00;34.20;;;-1.70;99.90;;;;;;5029887;28;20114;-63
2022/12/10 09:55:11;;;;;;;172.68;34.60;;;-1.70;99.90;;;;;;5031355;28;20161;-63
2022/12/10 09:57:49;;;;;;;123.13;32.58;;;-1.70;99.90;;;;;;5032921;28;20095;-63
2022/12/10 10:00:45;;;;;;;132.57;33.67;;;-1.70;99.90;;;;;;5046431;28;20041;-63
2022/12/10 10:03:16;;;;;;;135.60;34.88;;;-1.70;99.90;;;;;;5036261;28;20056;-63
2022/12/10 10:05:49;;;;;;;126.03;33.88;;;-1.70;99.90;;;;;;5028354;28;22001;-63
2022/12/10 10:08:38;;;;;;;139.55;34.17;;;-1.70;99.90;;;;;;5019916;28;20496;-63
2022/12/10 10:11:05;;;;;;;140.63;34.15;;;-1.70;99.90;;;;;;5024468;28;20049;-63
2022/12/10 10:13:41;;;;;;;83.85;32.35;;;-1.70;99.90;;;;;;5024427;28;20056;-63
2022/12/10 10:16:42;;;;;;;87.82;31.27;;;-1.70;99.90;;;;;;5024762;28;20045;-63
2022/12/10 10:19:30;;;;;;;75.60;29.48;;;-1.70;99.90;;;;;;5025060;28;20128;-62
2022/12/10 10:21:57;;;;;;;62.25;26.60;;;-1.70;99.90;;;;;;5020916;28;20187;-62
2022/12/10 10:24:31;;;;;;;62.22;26.42;;;-1.60;99.90;;;;;;5021327;28;20041;-62
2022/12/10 10:27:01;;;;;;;67.45;28.60;;;-1.70;99.90;;;;;;5027112;28;20492;-64
2022/12/10 10:29:27;;;;;;;71.28;28.98;;;-1.70;99.90;;;;;;5026026;28;20054;-64
2022/12/10 10:32:20;;;;;;;65.45;27.13;;;-1.60;99.90;;;;;;5023252;28;20053;-65
2022/12/10 10:34:52;;;;;;;72.68;28.15;;;-1.60;99.90;;;;;;5010744;28;20056;-64
2022/12/10 10:37:22;;;;;;;62.60;25.38;;;-1.60;99.90;;;;;;5020695;28;20069;-64
2022/12/10 10:39:50;;;;;;;63.42;27.38;;;-1.60;99.90;;;;;;5024336;28;20045;-62
2022/12/10 10:42:36;;;;;;;61.35;25.95;;;-1.60;99.90;;;;;;5026966;28;20045;-63
2022/12/10 10:45:31;;;;;;;67.82;26.85;;;-1.60;99.90;;;;;;5030807;28;20496;-62
2022/12/10 10:48:24;;;;;;;70.90;28.75;;;-1.50;99.90;;;;;;5031020;28;20040;-63
2022/12/10 10:50:55;;;;;;;77.75;29.90;;;-1.50;99.90;;;;;;5026201;28;20052;-62
2022/12/10 10:53:30;;;;;;;78.10;29.92;;;-1.50;99.90;;;;;;5030236;28;20049;-63
2022/12/10 10:56:04;;;;;;;85.43;30.20;;;-1.50;99.90;;;;;;5029729;28;20544;-62
2022/12/10 10:58:30;;;;;;;100.28;32.47;;;-1.40;99.90;;;;;;5028565;28;20124;-62
2022/12/10 11:01:03;;;;;;;79.95;30.73;;;-1.40;99.90;;;;;;5028534;28;20120;-62
2022/12/10 11:03:32;;;;;;;82.10;29.63;;;-1.40;99.90;;;;;;5032164;28;20099;-62
2022/12/10 11:05:59;;;;;;;79.90;31.00;;;-1.40;99.90;;;;;;5029347;28;20610;-62
2022/12/10 11:08:29;;;;;;;69.78;28.50;;;-1.30;99.90;;;;;;5030300;28;20087;-62
2022/12/10 11:11:02;;;;;;;74.07;28.38;;;-1.30;99.90;;;;;;5029580;28;20515;-62
2022/12/10 11:13:31;;;;;;;80.43;29.95;;;-1.30;99.90;;;;;;5029024;28;20048;-62
2022/12/10 11:16:10;;;;;;;77.70;30.00;;;-1.20;99.90;;;;;;5032315;28;20041;-63
2022/12/10 11:19:01;;;;;;;83.07;28.73;;;-1.20;99.90;;;;;;5031995;28;20049;-63
2022/12/10 11:21:33;;;;;;;74.35;28.48;;;-1.20;99.90;;;;;;5024953;28;20067;-62
2022/12/10 11:24:00;;;;;;;80.40;28.33;;;-1.20;99.90;;;;;;5006680;28;20087;-62
2022/12/10 11:26:37;;;;;;;76.97;29.00;;;-1.20;99.90;;;;;;5023689;28;21396;-62
2022/12/10 11:29:30;;;;;;;92.70;31.45;;;-1.20;99.90;;;;;;5022689;28;20041;-63
2022/12/10 11:32:14;;;;;;;82.47;31.08;;;-1.10;99.90;;;;;;5029102;28;20041;-63
2022/12/10 11:34:55;;;;;;;73.97;29.15;;;-1.20;99.90;;;;;;5032036;28;20395;-63
2022/12/10 11:37:29;;;;;;;92.30;29.70;;;-1.10;99.90;;;;;;5033824;28;20048;-63
2022/12/10 11:40:34;;;;;;;70.65;30.63;;;-1.10;99.90;;;;;;5026932;28;20041;-63
2022/12/10 11:43:37;;;;;;;78.32;31.23;;;-1.10;99.90;;;;;;5001435;28;20045;-63
2022/12/10 11:46:11;;;;;;;87.25;29.40;;;-1.10;99.90;;;;;;4975836;28;20077;-63
2022/12/10 11:48:43;;;;;;;92.32;31.63;;;-1.10;99.90;;;;;;5014971;28;20053;-63
2022/12/10 11:51:23;;;;;;;85.28;31.60;;;-1.10;99.90;;;;;;5012890;28;20118;-63
2022/12/10 11:54:11;;;;;;;91.05;30.25;;;-1.10;99.90;;;;;;5029417;28;20041;-63
2022/12/10 11:57:29;;;;;;;81.45;31.33;;;-1.10;99.90;;;;;;5029321;28;20042;-63
2022/12/10 12:00:13;;;;;;;97.15;31.08;;;-1.00;99.90;;;;;;4983064;28;20513;-63
2022/12/10 12:03:20;;;;;;;105.30;31.48;;;-1.00;99.90;;;;;;5014201;28;20045;-63
2022/12/10 12:06:44;;;;;;;97.03;31.95;;;-1.00;99.90;;;;;;4935341;28;20069;-63
2022/12/10 12:09:27;;;;;;;82.78;31.15;;;-1.00;99.90;;;;;;4973315;28;20092;-63
2022/12/10 12:12:29;;;;;;;85.70;32.00;;;-1.00;99.90;;;;;;5015626;28;20047;-63
2022/12/10 12:14:59;;;;;;;103.78;33.63;;;-1.00;99.90;;;;;;5026496;28;21402;-63
2022/12/10 12:17:34;;;;;;;117.28;34.58;;;-1.00;99.90;;;;;;5022939;28;20098;-63
2022/12/10 12:20:17;;;;;;;92.88;33.50;;;-1.00;99.90;;;;;;5032130;28;20038;-62
2022/12/10 12:22:49;;;;;;;109.80;34.22;;;-0.90;99.90;;;;;;5022839;28;20464;-63
2022/12/10 12:25:35;;;;;;;105.70;32.47;;;-0.90;99.90;;;;;;5035405;28;20072;-63
2022/12/10 12:28:36;;;;;;;126.30;34.75;;;-0.90;99.90;;;;;;5035063;28;20045;-63
2022/12/10 12:31:10;;;;;;;102.50;32.00;;;-0.80;99.90;;;;;;5018017;28;20054;-63
2022/12/10 12:33:52;;;;;;;97.22;33.15;;;-0.80;99.90;;;;;;5040938;28;20124;-63
2022/12/10 12:36:25;;;;;;;117.43;33.97;;;-0.80;99.90;;;;;;5029159;28;20511;-63
2022/12/10 12:38:58;;;;;;;102.28;33.05;;;-0.70;99.90;;;;;;5030576;28;20445;-63
2022/12/10 12:42:13;;;;;;;122.63;34.92;;;-0.70;99.90;;;;;;5031276;28;20077;-63
2022/12/10 12:44:58;;;;;;;94.60;32.42;;;-0.60;99.90;;;;;;4943795;28;20219;-63
2022/12/10 12:47:27;;;;;;;97.50;30.48;;;-0.70;99.90;;;;;;4955699;28;20425;-63
2022/12/10 12:49:54;;;;;;;119.03;33.20;;;-0.60;99.90;;;;;;5006963;28;20052;-63
2022/12/10 12:52:51;;;;;;;94.47;30.92;;;-0.60;99.90;;;;;;5030062;28;20033;-62
2022/12/10 12:55:43;;;;;;;116.00;33.13;;;-0.60;99.90;;;;;;5031979;28;20656;-63